sensor_id;sensor_type;location;lat;lon;timestamp;P1;durP1;ratioP1;P2;durP2;ratioP2
37701;SDS011;23548;51.196;6.838;2023-02-16T00:00:05;45.88;;;26.38;;
37701;SDS011;23548;51.196;6.838;2023-02-16T00:02:31;44.83;;;25.20;;
37701;SDS011;23548;51.196;6.838;2023-02-16T00:04:57;45.10;;;25.65;;
37701;SDS011;23548;51.196;6.838;2023-02-16T00:07:22;47.17;;;27.05;;
37701;SDS011;23548;51.196;6.838;2023-02-16T00:09:48;47.17;;;27.08;;
37701;SDS011;23548;51.196;6.838;2023-02-16T00:12:18;44.38;;;25.63;;
37701;SDS011;23548;51.196;6.838;2023-02-16T00:15:15;48.92;;;25.77;;
37701;SDS011;23548;51.196;6.838;2023-02-16T00:17:43;45.28;;;25.95;;
37701;SDS011;23548;51.196;6.838;2023-02-16T00:20:13;45.00;;;26.63;;
37701;SDS011;23548;51.196;6.838;2023-02-16T00:22:42;48.72;;;27.77;;
37701;SDS011;23548;51.196;6.838;2023-02-16T00:25:09;45.33;;;26.02;;
37701;SDS011;23548;51.196;6.838;2023-02-16T00:27:34;49.95;;;26.70;;
37701;SDS011;23548;51.196;6.838;2023-02-16T00:30:02;46.63;;;27.02;;
37701;SDS011;23548;51.196;6.838;2023-02-16T00:32:37;48.78;;;27.65;;
37701;SDS011;23548;51.196;6.838;2023-02-16T00:35:04;49.58;;;28.48;;
37701;SDS011;23548;51.196;6.838;2023-02-16T00:37:37;49.30;;;28.00;;
37701;SDS011;23548;51.196;6.838;2023-02-16T00:40:03;52.35;;;27.70;;
37701;SDS011;23548;51.196;6.838;2023-02-16T00:42:29;49.15;;;26.42;;
37701;SDS011;23548;51.196;6.838;2023-02-16T00:44:58;47.60;;;27.42;;
37701;SDS011;23548;51.196;6.838;2023-02-16T00:47:27;50.42;;;27.65;;
37701;SDS011;23548;51.196;6.838;2023-02-16T00:49:57;49.55;;;27.92;;
37701;SDS011;23548;51.196;6.838;2023-02-16T00:54:57;49.88;;;28.00;;
37701;SDS011;23548;51.196;6.838;2023-02-16T00:57:24;49.85;;;25.90;;
37701;SDS011;23548;51.196;6.838;2023-02-16T01:00:03;49.67;;;25.75;;
37701;SDS011;23548;51.196;6.838;2023-02-16T01:02:39;51.63;;;27.40;;
37701;SDS011;23548;51.196;6.838;2023-02-16T01:05:07;50.30;;;27.42;;
37701;SDS011;23548;51.196;6.838;2023-02-16T01:07:32;47.65;;;27.02;;
37701;SDS011;23548;51.196;6.838;2023-02-16T01:10:17;49.85;;;28.15;;
37701;SDS011;23548;51.196;6.838;2023-02-16T01:13:06;47.90;;;26.63;;
37701;SDS011;23548;51.196;6.838;2023-02-16T01:15:32;52.70;;;27.92;;
37701;SDS011;23548;51.196;6.838;2023-02-16T01:17:58;48.47;;;27.25;;
37701;SDS011;23548;51.196;6.838;2023-02-16T01:20:24;49.63;;;27.33;;
37701;SDS011;23548;51.196;6.838;2023-02-16T01:22:50;52.20;;;28.20;;
37701;SDS011;23548;51.196;6.838;2023-02-16T01:25:17;50.33;;;27.58;;
37701;SDS011;23548;51.196;6.838;2023-02-16T01:27:42;51.70;;;27.02;;
37701;SDS011;23548;51.196;6.838;2023-02-16T01:30:17;53.33;;;28.88;;
37701;SDS011;23548;51.196;6.838;2023-02-16T01:32:45;48.20;;;28.75;;
37701;SDS011;23548;51.196;6.838;2023-02-16T01:35:27;53.78;;;29.77;;
37701;SDS011;23548;51.196;6.838;2023-02-16T01:37:56;54.90;;;29.40;;
37701;SDS011;23548;51.196;6.838;2023-02-16T01:42:59;60.15;;;31.67;;
37701;SDS011;23548;51.196;6.838;2023-02-16T01:45:56;52.55;;;30.00;;
37701;SDS011;23548;51.196;6.838;2023-02-16T01:48:28;56.47;;;30.13;;
37701;SDS011;23548;51.196;6.838;2023-02-16T01:53:57;56.53;;;30.92;;
37701;SDS011;23548;51.196;6.838;2023-02-16T01:56:47;55.75;;;31.25;;
37701;SDS011;23548;51.196;6.838;2023-02-16T02:02:32;59.47;;;32.95;;
37701;SDS011;23548;51.196;6.838;2023-02-16T02:10:56;60.00;;;30.67;;
37701;SDS011;23548;51.196;6.838;2023-02-16T02:13:46;55.85;;;30.55;;
37701;SDS011;23548;51.196;6.838;2023-02-16T02:16:17;53.95;;;28.92;;
37701;SDS011;23548;51.196;6.838;2023-02-16T02:18:46;57.55;;;30.05;;
37701;SDS011;23548;51.196;6.838;2023-02-16T02:21:38;52.22;;;28.27;;
37701;SDS011;23548;51.196;6.838;2023-02-16T02:27:33;51.78;;;27.67;;
37701;SDS011;23548;51.196;6.838;2023-02-16T02:39:18;52.30;;;27.83;;
37701;SDS011;23548;51.196;6.838;2023-02-16T02:44:47;54.60;;;28.77;;
37701;SDS011;23548;51.196;6.838;2023-02-16T02:47:20;54.55;;;28.45;;
37701;SDS011;23548;51.196;6.838;2023-02-16T02:49:50;52.90;;;28.35;;
37701;SDS011;23548;51.196;6.838;2023-02-16T02:55:33;48.05;;;26.48;;
37701;SDS011;23548;51.196;6.838;2023-02-16T02:58:20;51.53;;;27.90;;
37701;SDS011;23548;51.196;6.838;2023-02-16T03:01:11;54.50;;;27.95;;
37701;SDS011;23548;51.196;6.838;2023-02-16T03:03:47;49.53;;;27.67;;
37701;SDS011;23548;51.196;6.838;2023-02-16T03:06:20;53.58;;;27.52;;
37701;SDS011;23548;51.196;6.838;2023-02-16T03:08:53;46.42;;;27.70;;
37701;SDS011;23548;51.196;6.838;2023-02-16T03:11:25;54.30;;;28.80;;
37701;SDS011;23548;51.196;6.838;2023-02-16T03:14:15;52.60;;;28.35;;
37701;SDS011;23548;51.196;6.838;2023-02-16T03:16:50;51.35;;;26.80;;
37701;SDS011;23548;51.196;6.838;2023-02-16T03:19:41;49.92;;;27.58;;
37701;SDS011;23548;51.196;6.838;2023-02-16T03:22:27;54.08;;;28.15;;
37701;SDS011;23548;51.196;6.838;2023-02-16T03:25:13;53.47;;;27.60;;
37701;SDS011;23548;51.196;6.838;2023-02-16T03:27:58;55.20;;;26.58;;
37701;SDS011;23548;51.196;6.838;2023-02-16T03:30:45;54.80;;;28.40;;
37701;SDS011;23548;51.196;6.838;2023-02-16T03:33:13;52.92;;;28.02;;
37701;SDS011;23548;51.196;6.838;2023-02-16T03:35:39;53.15;;;28.10;;
37701;SDS011;23548;51.196;6.838;2023-02-16T03:38:04;50.33;;;28.13;;
37701;SDS011;23548;51.196;6.838;2023-02-16T03:40:31;48.92;;;27.52;;
37701;SDS011;23548;51.196;6.838;2023-02-16T03:43:00;51.00;;;27.13;;
37701;SDS011;23548;51.196;6.838;2023-02-16T03:45:28;51.63;;;27.20;;
37701;SDS011;23548;51.196;6.838;2023-02-16T03:47:55;54.13;;;28.77;;
37701;SDS011;23548;51.196;6.838;2023-02-16T03:50:21;53.95;;;28.20;;
37701;SDS011;23548;51.196;6.838;2023-02-16T03:52:47;53.28;;;28.77;;
37701;SDS011;23548;51.196;6.838;2023-02-16T03:55:13;56.10;;;28.55;;
37701;SDS011;23548;51.196;6.838;2023-02-16T03:57:39;53.03;;;28.98;;
37701;SDS011;23548;51.196;6.838;2023-02-16T04:00:05;54.05;;;28.98;;
37701;SDS011;23548;51.196;6.838;2023-02-16T04:02:32;55.58;;;28.80;;
37701;SDS011;23548;51.196;6.838;2023-02-16T04:04:57;55.40;;;29.20;;
37701;SDS011;23548;51.196;6.838;2023-02-16T04:07:23;50.58;;;29.30;;
37701;SDS011;23548;51.196;6.838;2023-02-16T04:09:49;50.67;;;27.80;;
37701;SDS011;23548;51.196;6.838;2023-02-16T04:12:15;56.10;;;29.88;;
37701;SDS011;23548;51.196;6.838;2023-02-16T04:14:59;54.08;;;28.45;;
37701;SDS011;23548;51.196;6.838;2023-02-16T04:17:25;53.08;;;28.95;;
37701;SDS011;23548;51.196;6.838;2023-02-16T04:19:51;55.83;;;29.48;;
37701;SDS011;23548;51.196;6.838;2023-02-16T04:22:16;54.33;;;29.05;;
37701;SDS011;23548;51.196;6.838;2023-02-16T04:24:42;53.45;;;28.40;;
37701;SDS011;23548;51.196;6.838;2023-02-16T04:27:08;57.15;;;29.63;;
37701;SDS011;23548;51.196;6.838;2023-02-16T04:29:33;58.65;;;30.02;;
37701;SDS011;23548;51.196;6.838;2023-02-16T04:31:59;53.03;;;30.20;;
37701;SDS011;23548;51.196;6.838;2023-02-16T04:34:25;53.72;;;29.98;;
37701;SDS011;23548;51.196;6.838;2023-02-16T04:36:50;56.47;;;30.55;;
37701;SDS011;23548;51.196;6.838;2023-02-16T04:39:16;58.75;;;30.95;;
37701;SDS011;23548;51.196;6.838;2023-02-16T04:41:42;57.13;;;29.52;;
37701;SDS011;23548;51.196;6.838;2023-02-16T04:44:07;53.03;;;29.58;;
37701;SDS011;23548;51.196;6.838;2023-02-16T04:46:33;55.80;;;30.35;;
37701;SDS011;23548;51.196;6.838;2023-02-16T04:48:59;54.30;;;30.80;;
37701;SDS011;23548;51.196;6.838;2023-02-16T04:51:25;61.03;;;32.40;;
37701;SDS011;23548;51.196;6.838;2023-02-16T04:53:51;58.42;;;30.05;;
37701;SDS011;23548;51.196;6.838;2023-02-16T04:56:17;57.88;;;29.40;;
37701;SDS011;23548;51.196;6.838;2023-02-16T04:58:42;55.33;;;28.85;;
37701;SDS011;23548;51.196;6.838;2023-02-16T05:01:08;54.85;;;29.95;;
37701;SDS011;23548;51.196;6.838;2023-02-16T05:03:43;55.10;;;29.70;;
37701;SDS011;23548;51.196;6.838;2023-02-16T05:06:08;55.00;;;29.65;;
37701;SDS011;23548;51.196;6.838;2023-02-16T05:08:34;60.17;;;30.80;;
37701;SDS011;23548;51.196;6.838;2023-02-16T05:11:00;58.45;;;31.35;;
37701;SDS011;23548;51.196;6.838;2023-02-16T05:13:44;56.15;;;29.88;;
37701;SDS011;23548;51.196;6.838;2023-02-16T05:16:28;61.67;;;31.27;;
37701;SDS011;23548;51.196;6.838;2023-02-16T05:18:54;57.35;;;28.80;;
37701;SDS011;23548;51.196;6.838;2023-02-16T05:21:20;59.45;;;30.30;;
37701;SDS011;23548;51.196;6.838;2023-02-16T05:23:59;55.30;;;30.10;;
37701;SDS011;23548;51.196;6.838;2023-02-16T05:26:33;56.67;;;30.00;;
37701;SDS011;23548;51.196;6.838;2023-02-16T05:29:00;60.45;;;31.25;;
37701;SDS011;23548;51.196;6.838;2023-02-16T05:31:27;58.03;;;30.75;;
37701;SDS011;23548;51.196;6.838;2023-02-16T05:33:53;62.75;;;32.45;;
37701;SDS011;23548;51.196;6.838;2023-02-16T05:36:19;59.58;;;29.60;;
37701;SDS011;23548;51.196;6.838;2023-02-16T05:38:45;56.55;;;30.73;;
37701;SDS011;23548;51.196;6.838;2023-02-16T05:41:11;60.95;;;31.83;;
37701;SDS011;23548;51.196;6.838;2023-02-16T05:43:57;59.92;;;31.30;;
37701;SDS011;23548;51.196;6.838;2023-02-16T05:46:25;62.03;;;31.05;;
37701;SDS011;23548;51.196;6.838;2023-02-16T05:48:52;58.30;;;31.05;;
37701;SDS011;23548;51.196;6.838;2023-02-16T05:51:18;55.28;;;30.02;;
37701;SDS011;23548;51.196;6.838;2023-02-16T05:53:45;55.97;;;30.05;;
37701;SDS011;23548;51.196;6.838;2023-02-16T05:56:11;58.15;;;30.13;;
37701;SDS011;23548;51.196;6.838;2023-02-16T05:58:41;57.15;;;31.15;;
37701;SDS011;23548;51.196;6.838;2023-02-16T06:01:07;55.47;;;29.88;;
37701;SDS011;23548;51.196;6.838;2023-02-16T06:03:33;54.00;;;29.55;;
37701;SDS011;23548;51.196;6.838;2023-02-16T06:06:00;54.05;;;29.45;;
37701;SDS011;23548;51.196;6.838;2023-02-16T06:08:29;58.42;;;30.38;;
37701;SDS011;23548;51.196;6.838;2023-02-16T06:10:59;49.63;;;27.35;;
37701;SDS011;23548;51.196;6.838;2023-02-16T06:13:31;55.10;;;29.00;;
37701;SDS011;23548;51.196;6.838;2023-02-16T06:16:00;49.97;;;27.70;;
37701;SDS011;23548;51.196;6.838;2023-02-16T06:18:27;55.97;;;28.45;;
37701;SDS011;23548;51.196;6.838;2023-02-16T06:20:55;53.30;;;28.40;;
37701;SDS011;23548;51.196;6.838;2023-02-16T06:23:21;54.63;;;28.10;;
37701;SDS011;23548;51.196;6.838;2023-02-16T06:25:48;57.13;;;28.77;;
37701;SDS011;23548;51.196;6.838;2023-02-16T06:28:15;50.53;;;28.40;;
37701;SDS011;23548;51.196;6.838;2023-02-16T06:30:41;52.75;;;27.55;;
37701;SDS011;23548;51.196;6.838;2023-02-16T06:33:07;48.17;;;27.05;;
37701;SDS011;23548;51.196;6.838;2023-02-16T06:35:33;44.75;;;26.25;;
37701;SDS011;23548;51.196;6.838;2023-02-16T06:37:59;50.00;;;28.20;;
37701;SDS011;23548;51.196;6.838;2023-02-16T06:40:25;50.75;;;27.13;;
37701;SDS011;23548;51.196;6.838;2023-02-16T06:42:51;48.95;;;27.25;;
37701;SDS011;23548;51.196;6.838;2023-02-16T06:45:19;49.22;;;27.13;;
37701;SDS011;23548;51.196;6.838;2023-02-16T06:47:45;50.03;;;26.27;;
37701;SDS011;23548;51.196;6.838;2023-02-16T06:50:11;47.95;;;27.30;;
37701;SDS011;23548;51.196;6.838;2023-02-16T06:52:38;49.70;;;26.90;;
37701;SDS011;23548;51.196;6.838;2023-02-16T06:55:04;49.10;;;27.10;;
37701;SDS011;23548;51.196;6.838;2023-02-16T06:57:31;51.53;;;27.52;;
37701;SDS011;23548;51.196;6.838;2023-02-16T06:59:57;51.28;;;26.55;;
37701;SDS011;23548;51.196;6.838;2023-02-16T07:02:22;50.97;;;27.05;;
37701;SDS011;23548;51.196;6.838;2023-02-16T07:04:48;51.40;;;28.80;;
37701;SDS011;23548;51.196;6.838;2023-02-16T07:07:14;51.78;;;28.98;;
37701;SDS011;23548;51.196;6.838;2023-02-16T07:09:40;52.17;;;26.67;;
37701;SDS011;23548;51.196;6.838;2023-02-16T07:12:06;49.85;;;27.20;;
37701;SDS011;23548;51.196;6.838;2023-02-16T07:14:32;50.10;;;27.25;;
37701;SDS011;23548;51.196;6.838;2023-02-16T07:16:58;52.85;;;28.10;;
37701;SDS011;23548;51.196;6.838;2023-02-16T07:19:28;48.67;;;26.75;;
37701;SDS011;23548;51.196;6.838;2023-02-16T07:21:57;48.35;;;26.70;;
37701;SDS011;23548;51.196;6.838;2023-02-16T07:24:26;52.03;;;28.05;;
37701;SDS011;23548;51.196;6.838;2023-02-16T07:26:53;52.35;;;27.15;;
37701;SDS011;23548;51.196;6.838;2023-02-16T07:29:20;53.17;;;27.02;;
37701;SDS011;23548;51.196;6.838;2023-02-16T07:31:46;55.65;;;27.00;;
37701;SDS011;23548;51.196;6.838;2023-02-16T07:34:11;52.92;;;27.20;;
37701;SDS011;23548;51.196;6.838;2023-02-16T07:36:37;49.00;;;28.15;;
37701;SDS011;23548;51.196;6.838;2023-02-16T07:39:03;51.33;;;27.77;;
37701;SDS011;23548;51.196;6.838;2023-02-16T07:41:29;45.30;;;26.30;;
37701;SDS011;23548;51.196;6.838;2023-02-16T07:43:55;47.40;;;28.23;;
37701;SDS011;23548;51.196;6.838;2023-02-16T07:46:20;50.25;;;27.90;;
37701;SDS011;23548;51.196;6.838;2023-02-16T07:48:47;53.88;;;27.95;;
37701;SDS011;23548;51.196;6.838;2023-02-16T07:51:19;59.70;;;28.33;;
37701;SDS011;23548;51.196;6.838;2023-02-16T07:53:49;51.67;;;28.58;;
37701;SDS011;23548;51.196;6.838;2023-02-16T07:56:19;53.25;;;28.50;;
37701;SDS011;23548;51.196;6.838;2023-02-16T07:58:46;48.20;;;27.20;;
37701;SDS011;23548;51.196;6.838;2023-02-16T08:01:12;51.15;;;29.23;;
37701;SDS011;23548;51.196;6.838;2023-02-16T08:03:46;50.80;;;28.02;;
37701;SDS011;23548;51.196;6.838;2023-02-16T08:06:12;47.45;;;27.15;;
37701;SDS011;23548;51.196;6.838;2023-02-16T08:08:38;50.50;;;27.63;;
37701;SDS011;23548;51.196;6.838;2023-02-16T08:11:13;49.17;;;27.02;;
37701;SDS011;23548;51.196;6.838;2023-02-16T08:13:40;58.00;;;29.38;;
37701;SDS011;23548;51.196;6.838;2023-02-16T08:16:15;47.20;;;27.13;;
37701;SDS011;23548;51.196;6.838;2023-02-16T08:18:49;53.90;;;29.30;;
37701;SDS011;23548;51.196;6.838;2023-02-16T08:21:18;45.03;;;27.27;;
37701;SDS011;23548;51.196;6.838;2023-02-16T08:23:48;46.20;;;27.05;;
37701;SDS011;23548;51.196;6.838;2023-02-16T08:26:19;43.58;;;26.92;;
37701;SDS011;23548;51.196;6.838;2023-02-16T08:28:46;50.05;;;27.35;;
37701;SDS011;23548;51.196;6.838;2023-02-16T08:31:23;49.15;;;27.02;;
37701;SDS011;23548;51.196;6.838;2023-02-16T08:33:55;55.22;;;27.75;;
37701;SDS011;23548;51.196;6.838;2023-02-16T08:36:23;56.13;;;28.58;;
37701;SDS011;23548;51.196;6.838;2023-02-16T08:38:50;50.45;;;28.00;;
37701;SDS011;23548;51.196;6.838;2023-02-16T08:41:18;47.08;;;27.40;;
37701;SDS011;23548;51.196;6.838;2023-02-16T08:43:46;46.22;;;27.65;;
37701;SDS011;23548;51.196;6.838;2023-02-16T08:46:12;52.05;;;27.60;;
37701;SDS011;23548;51.196;6.838;2023-02-16T08:48:38;47.70;;;26.77;;
37701;SDS011;23548;51.196;6.838;2023-02-16T08:51:05;49.55;;;27.48;;
37701;SDS011;23548;51.196;6.838;2023-02-16T08:53:32;45.85;;;26.27;;
37701;SDS011;23548;51.196;6.838;2023-02-16T08:55:59;48.67;;;27.35;;
37701;SDS011;23548;51.196;6.838;2023-02-16T08:58:29;50.78;;;27.80;;
37701;SDS011;23548;51.196;6.838;2023-02-16T09:00:55;51.72;;;29.50;;
37701;SDS011;23548;51.196;6.838;2023-02-16T09:03:21;49.45;;;27.88;;
37701;SDS011;23548;51.196;6.838;2023-02-16T09:05:48;52.10;;;28.20;;
37701;SDS011;23548;51.196;6.838;2023-02-16T09:08:15;51.22;;;28.23;;
37701;SDS011;23548;51.196;6.838;2023-02-16T09:10:41;50.65;;;27.55;;
37701;SDS011;23548;51.196;6.838;2023-02-16T09:13:08;49.53;;;28.35;;
37701;SDS011;23548;51.196;6.838;2023-02-16T09:15:38;53.10;;;29.13;;
37701;SDS011;23548;51.196;6.838;2023-02-16T09:18:04;48.92;;;29.05;;
37701;SDS011;23548;51.196;6.838;2023-02-16T09:20:31;52.63;;;28.88;;
37701;SDS011;23548;51.196;6.838;2023-02-16T09:22:57;45.33;;;27.25;;
37701;SDS011;23548;51.196;6.838;2023-02-16T09:25:23;44.80;;;27.10;;
37701;SDS011;23548;51.196;6.838;2023-02-16T09:27:49;46.22;;;25.25;;
37701;SDS011;23548;51.196;6.838;2023-02-16T09:30:15;45.45;;;27.50;;
37701;SDS011;23548;51.196;6.838;2023-02-16T09:32:42;44.45;;;27.13;;
37701;SDS011;23548;51.196;6.838;2023-02-16T09:35:08;46.35;;;27.80;;
37701;SDS011;23548;51.196;6.838;2023-02-16T09:37:34;46.75;;;26.52;;
37701;SDS011;23548;51.196;6.838;2023-02-16T09:40:00;44.90;;;26.27;;
37701;SDS011;23548;51.196;6.838;2023-02-16T09:45:02;49.13;;;27.40;;
37701;SDS011;23548;51.196;6.838;2023-02-16T09:47:33;44.65;;;26.48;;
37701;SDS011;23548;51.196;6.838;2023-02-16T09:50:12;42.65;;;25.73;;
37701;SDS011;23548;51.196;6.838;2023-02-16T09:52:39;48.70;;;26.90;;
37701;SDS011;23548;51.196;6.838;2023-02-16T09:55:21;41.13;;;25.52;;
37701;SDS011;23548;51.196;6.838;2023-02-16T10:00:50;43.05;;;26.92;;
37701;SDS011;23548;51.196;6.838;2023-02-16T10:06:35;48.08;;;27.13;;
37701;SDS011;23548;51.196;6.838;2023-02-16T10:09:10;45.65;;;28.45;;
37701;SDS011;23548;51.196;6.838;2023-02-16T10:12:03;51.92;;;28.73;;
37701;SDS011;23548;51.196;6.838;2023-02-16T10:14:50;48.00;;;28.40;;
37701;SDS011;23548;51.196;6.838;2023-02-16T10:20:12;47.08;;;27.70;;
37701;SDS011;23548;51.196;6.838;2023-02-16T10:25:24;51.08;;;29.40;;
37701;SDS011;23548;51.196;6.838;2023-02-16T10:30:48;48.85;;;28.33;;
37701;SDS011;23548;51.196;6.838;2023-02-16T10:33:41;56.20;;;28.73;;
37701;SDS011;23548;51.196;6.838;2023-02-16T10:36:52;47.13;;;28.25;;
37701;SDS011;23548;51.196;6.838;2023-02-16T10:42:16;56.05;;;29.10;;
37701;SDS011;23548;51.196;6.838;2023-02-16T10:44:47;47.00;;;29.08;;
37701;SDS011;23548;51.196;6.838;2023-02-16T10:47:42;53.13;;;31.45;;
37701;SDS011;23548;51.196;6.838;2023-02-16T10:56:14;58.83;;;29.50;;
37701;SDS011;23548;51.196;6.838;2023-02-16T10:58:48;52.15;;;30.48;;
37701;SDS011;23548;51.196;6.838;2023-02-16T11:01:19;44.67;;;27.50;;
37701;SDS011;23548;51.196;6.838;2023-02-16T11:03:54;52.30;;;27.88;;
37701;SDS011;23548;51.196;6.838;2023-02-16T11:06:21;47.63;;;27.60;;
37701;SDS011;23548;51.196;6.838;2023-02-16T11:08:53;52.17;;;27.75;;
37701;SDS011;23548;51.196;6.838;2023-02-16T11:11:25;46.08;;;27.45;;
37701;SDS011;23548;51.196;6.838;2023-02-16T11:13:59;44.70;;;26.30;;
37701;SDS011;23548;51.196;6.838;2023-02-16T11:16:28;44.38;;;27.45;;
37701;SDS011;23548;51.196;6.838;2023-02-16T11:18:55;46.22;;;28.90;;
37701;SDS011;23548;51.196;6.838;2023-02-16T11:24:09;45.05;;;27.27;;
37701;SDS011;23548;51.196;6.838;2023-02-16T11:26:38;54.90;;;28.27;;
37701;SDS011;23548;51.196;6.838;2023-02-16T11:29:25;49.67;;;30.15;;
37701;SDS011;23548;51.196;6.838;2023-02-16T11:31:50;54.28;;;27.92;;
37701;SDS011;23548;51.196;6.838;2023-02-16T11:37:05;47.40;;;28.23;;
37701;SDS011;23548;51.196;6.838;2023-02-16T11:39:38;54.22;;;31.08;;
37701;SDS011;23548;51.196;6.838;2023-02-16T11:44:58;65.57;;;34.78;;
37701;SDS011;23548;51.196;6.838;2023-02-16T11:52:53;56.03;;;31.83;;
37701;SDS011;23548;51.196;6.838;2023-02-16T11:55:40;70.60;;;35.47;;
37701;SDS011;23548;51.196;6.838;2023-02-16T12:06:50;47.08;;;30.65;;
37701;SDS011;23548;51.196;6.838;2023-02-16T12:09:56;46.80;;;29.40;;
37701;SDS011;23548;51.196;6.838;2023-02-16T12:12:32;44.70;;;29.17;;
37701;SDS011;23548;51.196;6.838;2023-02-16T12:26:21;50.22;;;29.70;;
37701;SDS011;23548;51.196;6.838;2023-02-16T12:28:49;55.35;;;29.42;;
37701;SDS011;23548;51.196;6.838;2023-02-16T12:31:23;47.78;;;29.63;;
37701;SDS011;23548;51.196;6.838;2023-02-16T12:39:28;49.92;;;30.63;;
37701;SDS011;23548;51.196;6.838;2023-02-16T12:44:55;49.45;;;29.48;;
37701;SDS011;23548;51.196;6.838;2023-02-16T12:47:29;46.33;;;30.35;;
37701;SDS011;23548;51.196;6.838;2023-02-16T12:50:05;51.22;;;32.00;;
37701;SDS011;23548;51.196;6.838;2023-02-16T13:00:48;50.47;;;31.15;;
37701;SDS011;23548;51.196;6.838;2023-02-16T13:14:13;47.10;;;30.38;;
37701;SDS011;23548;51.196;6.838;2023-02-16T13:16:47;50.70;;;31.13;;
37701;SDS011;23548;51.196;6.838;2023-02-16T13:19:19;49.58;;;31.30;;
37701;SDS011;23548;51.196;6.838;2023-02-16T13:24:21;45.70;;;30.02;;
37701;SDS011;23548;51.196;6.838;2023-02-16T13:35:25;51.10;;;30.63;;
37701;SDS011;23548;51.196;6.838;2023-02-16T13:38:30;46.47;;;28.75;;
37701;SDS011;23548;51.196;6.838;2023-02-16T13:43:41;43.00;;;28.27;;
37701;SDS011;23548;51.196;6.838;2023-02-16T13:46:25;53.22;;;30.15;;
37701;SDS011;23548;51.196;6.838;2023-02-16T13:48:54;43.20;;;29.27;;
37701;SDS011;23548;51.196;6.838;2023-02-16T13:51:21;43.70;;;28.73;;
37701;SDS011;23548;51.196;6.838;2023-02-16T13:53:51;47.03;;;28.20;;
37701;SDS011;23548;51.196;6.838;2023-02-16T13:58:52;48.67;;;29.98;;
37701;SDS011;23548;51.196;6.838;2023-02-16T14:01:36;48.40;;;28.83;;
37701;SDS011;23548;51.196;6.838;2023-02-16T14:04:10;46.60;;;27.52;;
37701;SDS011;23548;51.196;6.838;2023-02-16T14:06:39;42.78;;;28.20;;
37701;SDS011;23548;51.196;6.838;2023-02-16T14:14:44;43.63;;;28.15;;
37701;SDS011;23548;51.196;6.838;2023-02-16T14:20:03;40.45;;;27.38;;
37701;SDS011;23548;51.196;6.838;2023-02-16T14:35:40;43.95;;;27.67;;
37701;SDS011;23548;51.196;6.838;2023-02-16T14:38:32;44.53;;;27.92;;
37701;SDS011;23548;51.196;6.838;2023-02-16T14:41:01;40.17;;;27.00;;
37701;SDS011;23548;51.196;6.838;2023-02-16T14:43:43;39.88;;;25.40;;
37701;SDS011;23548;51.196;6.838;2023-02-16T14:46:32;39.17;;;24.88;;
37701;SDS011;23548;51.196;6.838;2023-02-16T14:55:13;34.45;;;24.23;;
37701;SDS011;23548;51.196;6.838;2023-02-16T14:58:02;41.70;;;25.80;;
37701;SDS011;23548;51.196;6.838;2023-02-16T15:00:44;38.65;;;23.83;;
37701;SDS011;23548;51.196;6.838;2023-02-16T15:05:54;40.80;;;25.17;;
37701;SDS011;23548;51.196;6.838;2023-02-16T15:08:23;37.95;;;24.60;;
37701;SDS011;23548;51.196;6.838;2023-02-16T15:10:59;45.33;;;26.80;;
37701;SDS011;23548;51.196;6.838;2023-02-16T15:13:30;36.95;;;24.95;;
37701;SDS011;23548;51.196;6.838;2023-02-16T15:15:59;38.97;;;24.55;;
37701;SDS011;23548;51.196;6.838;2023-02-16T15:18:28;38.28;;;24.40;;
37701;SDS011;23548;51.196;6.838;2023-02-16T15:21:04;41.15;;;25.00;;
37701;SDS011;23548;51.196;6.838;2023-02-16T15:23:46;40.70;;;24.38;;
37701;SDS011;23548;51.196;6.838;2023-02-16T15:26:27;39.70;;;24.88;;
37701;SDS011;23548;51.196;6.838;2023-02-16T15:29:12;36.95;;;23.77;;
37701;SDS011;23548;51.196;6.838;2023-02-16T15:31:45;41.58;;;24.52;;
37701;SDS011;23548;51.196;6.838;2023-02-16T15:34:13;41.38;;;24.23;;
37701;SDS011;23548;51.196;6.838;2023-02-16T15:36:57;42.67;;;25.05;;
37701;SDS011;23548;51.196;6.838;2023-02-16T15:39:29;39.08;;;24.27;;
37701;SDS011;23548;51.196;6.838;2023-02-16T15:42:11;41.47;;;23.52;;
37701;SDS011;23548;51.196;6.838;2023-02-16T15:44:44;42.75;;;23.38;;
37701;SDS011;23548;51.196;6.838;2023-02-16T15:49:42;38.90;;;24.52;;
37701;SDS011;23548;51.196;6.838;2023-02-16T15:52:18;38.15;;;23.27;;
37701;SDS011;23548;51.196;6.838;2023-02-16T15:54:52;38.50;;;23.40;;
37701;SDS011;23548;51.196;6.838;2023-02-16T15:57:19;38.05;;;24.73;;
37701;SDS011;23548;51.196;6.838;2023-02-16T15:59:53;34.65;;;24.13;;
37701;SDS011;23548;51.196;6.838;2023-02-16T16:02:33;39.15;;;23.48;;
37701;SDS011;23548;51.196;6.838;2023-02-16T16:05:03;35.28;;;21.88;;
37701;SDS011;23548;51.196;6.838;2023-02-16T16:07:39;37.67;;;22.38;;
37701;SDS011;23548;51.196;6.838;2023-02-16T16:10:27;40.33;;;21.80;;
37701;SDS011;23548;51.196;6.838;2023-02-16T16:13:01;44.92;;;21.63;;
37701;SDS011;23548;51.196;6.838;2023-02-16T16:15:37;38.72;;;22.58;;
37701;SDS011;23548;51.196;6.838;2023-02-16T16:18:29;37.17;;;21.98;;
37701;SDS011;23548;51.196;6.838;2023-02-16T16:21:01;34.70;;;21.10;;
37701;SDS011;23548;51.196;6.838;2023-02-16T16:23:37;36.45;;;21.60;;
37701;SDS011;23548;51.196;6.838;2023-02-16T16:26:19;33.47;;;20.35;;
37701;SDS011;23548;51.196;6.838;2023-02-16T16:28:46;36.00;;;20.33;;
37701;SDS011;23548;51.196;6.838;2023-02-16T16:41:34;29.95;;;18.55;;
37701;SDS011;23548;51.196;6.838;2023-02-16T16:44:00;38.65;;;19.73;;
37701;SDS011;23548;51.196;6.838;2023-02-16T16:46:26;35.80;;;19.15;;
37701;SDS011;23548;51.196;6.838;2023-02-16T16:48:55;31.92;;;18.27;;
37701;SDS011;23548;51.196;6.838;2023-02-16T16:56:24;30.90;;;16.52;;
37701;SDS011;23548;51.196;6.838;2023-02-16T16:58:51;31.92;;;16.77;;
37701;SDS011;23548;51.196;6.838;2023-02-16T17:01:20;25.88;;;16.40;;
37701;SDS011;23548;51.196;6.838;2023-02-16T17:03:47;35.53;;;16.45;;
37701;SDS011;23548;51.196;6.838;2023-02-16T17:06:13;29.33;;;17.15;;
37701;SDS011;23548;51.196;6.838;2023-02-16T17:08:41;30.45;;;18.40;;
37701;SDS011;23548;51.196;6.838;2023-02-16T17:11:07;32.88;;;19.63;;
37701;SDS011;23548;51.196;6.838;2023-02-16T17:13:54;38.40;;;20.60;;
37701;SDS011;23548;51.196;6.838;2023-02-16T17:16:31;38.47;;;23.15;;
37701;SDS011;23548;51.196;6.838;2023-02-16T17:19:01;33.00;;;21.30;;
37701;SDS011;23548;51.196;6.838;2023-02-16T17:21:27;36.55;;;22.20;;
37701;SDS011;23548;51.196;6.838;2023-02-16T17:23:53;39.92;;;22.98;;
37701;SDS011;23548;51.196;6.838;2023-02-16T17:26:20;38.90;;;24.25;;
37701;SDS011;23548;51.196;6.838;2023-02-16T17:28:46;43.25;;;24.75;;
37701;SDS011;23548;51.196;6.838;2023-02-16T17:31:12;34.60;;;23.30;;
37701;SDS011;23548;51.196;6.838;2023-02-16T17:33:38;39.83;;;24.67;;
37701;SDS011;23548;51.196;6.838;2023-02-16T17:36:04;42.63;;;26.42;;
37701;SDS011;23548;51.196;6.838;2023-02-16T17:38:31;38.17;;;25.83;;
37701;SDS011;23548;51.196;6.838;2023-02-16T17:40:57;41.15;;;24.63;;
37701;SDS011;23548;51.196;6.838;2023-02-16T17:43:23;47.95;;;26.08;;
37701;SDS011;23548;51.196;6.838;2023-02-16T17:45:51;38.88;;;23.23;;
37701;SDS011;23548;51.196;6.838;2023-02-16T17:50:50;34.35;;;22.83;;
37701;SDS011;23548;51.196;6.838;2023-02-16T17:53:17;38.88;;;23.40;;